Time;durP1;ratioP1;P1;durP2;ratioP2;P2;SDS_P1;SDS_P2;PMS_P1;PMS_P2;Temp;Humidity;BMP_temperature;BMP_pressure;BME280_temperature;BME280_humidity;BME280_pressure;Samples;Min_cycle;Max_cycle;Signal;HPM_P1;HPM_P2
2022/03/19 00:01:19;;;;;;;48.43;36.57;;;7.00;99.90;;;;;;5034430;28;20288;-63
2022/03/19 00:03:46;;;;;;;47.73;35.73;;;7.00;99.90;;;;;;5034319;28;20213;-63
2022/03/19 00:06:12;;;;;;;51.13;36.40;;;6.90;99.90;;;;;;5034636;28;20260;-63
2022/03/19 00:08:39;;;;;;;47.20;35.17;;;6.80;99.90;;;;;;5034349;28;20230;-62
2022/03/19 00:11:06;;;;;;;48.87;35.97;;;6.70;99.90;;;;;;5034305;28;20242;-62
2022/03/19 00:13:33;;;;;;;47.20;34.23;;;6.70;99.90;;;;;;5034209;28;20604;-61
2022/03/19 00:16:00;;;;;;;52.67;37.00;;;6.70;99.90;;;;;;5034198;28;20252;-62
2022/03/19 00:18:28;;;;;;;48.60;34.17;;;6.60;99.90;;;;;;5033580;28;20587;-61
2022/03/19 00:20:55;;;;;;;49.63;34.87;;;6.60;99.90;;;;;;5033850;28;20222;-63
2022/03/19 00:23:22;;;;;;;46.87;33.40;;;6.60;99.90;;;;;;5034273;28;20605;-63
2022/03/19 00:25:48;;;;;;;50.43;34.60;;;6.50;99.90;;;;;;5034100;28;20252;-62
2022/03/19 00:28:18;;;;;;;47.60;33.50;;;6.50;99.90;;;;;;5034075;28;20226;-61
2022/03/19 00:30:45;;;;;;;43.90;33.53;;;6.50;99.90;;;;;;5033713;28;20292;-61
2022/03/19 00:33:12;;;;;;;44.43;31.93;;;6.40;99.90;;;;;;5033865;28;20218;-62
2022/03/19 00:35:40;;;;;;;44.90;32.57;;;6.40;99.90;;;;;;5034037;28;20294;-61
2022/03/19 00:38:07;;;;;;;45.00;32.03;;;6.40;99.90;;;;;;5033917;28;20256;-62
2022/03/19 00:40:35;;;;;;;46.37;32.50;;;6.40;99.90;;;;;;5033594;28;20237;-62
2022/03/19 00:43:02;;;;;;;43.53;32.60;;;6.50;99.90;;;;;;5033831;28;20382;-62
2022/03/19 00:45:28;;;;;;;40.03;31.40;;;6.50;99.90;;;;;;5033733;28;20213;-62
2022/03/19 00:47:55;;;;;;;40.80;31.67;;;6.50;99.90;;;;;;5033558;28;20702;-61
2022/03/19 00:50:22;;;;;;;43.43;31.87;;;6.50;99.90;;;;;;5033557;28;20321;-61
2022/03/19 00:52:50;;;;;;;42.07;32.53;;;6.50;99.90;;;;;;5033577;28;20671;-63
2022/03/19 00:55:17;;;;;;;45.27;33.27;;;6.50;99.90;;;;;;5033446;28;20666;-61
2022/03/19 00:57:45;;;;;;;42.77;31.20;;;6.50;99.90;;;;;;5033426;28;20208;-62
2022/03/19 01:00:14;;;;;;;43.33;30.63;;;6.50;99.90;;;;;;5032999;28;20226;-62
2022/03/19 01:02:40;;;;;;;42.77;31.73;;;6.50;99.90;;;;;;5033557;28;20206;-61
2022/03/19 01:05:09;;;;;;;42.83;30.50;;;6.40;99.90;;;;;;5033491;28;20582;-61
2022/03/19 01:07:42;;;;;;;43.17;30.07;;;6.50;99.90;;;;;;5033465;28;20222;-61
2022/03/19 01:10:12;;;;;;;43.77;30.77;;;6.40;99.90;;;;;;5033140;28;20321;-61
2022/03/19 01:12:39;;;;;;;41.07;31.27;;;6.40;99.90;;;;;;5033201;28;20206;-62
2022/03/19 01:15:07;;;;;;;43.03;31.50;;;6.40;99.90;;;;;;5033345;28;20266;-62
2022/03/19 01:17:34;;;;;;;42.67;32.07;;;6.40;99.90;;;;;;5033551;28;20249;-62
2022/03/19 01:20:02;;;;;;;42.83;31.80;;;6.40;99.90;;;;;;5032974;28;20288;-62
2022/03/19 01:22:29;;;;;;;42.67;30.97;;;6.40;99.90;;;;;;5033003;28;20777;-62
2022/03/19 01:24:56;;;;;;;41.57;30.40;;;6.40;99.90;;;;;;5032997;28;20614;-61
2022/03/19 01:27:24;;;;;;;44.93;31.77;;;6.40;99.90;;;;;;5032853;28;20202;-63
2022/03/19 01:29:51;;;;;;;41.67;31.60;;;6.40;99.90;;;;;;5032761;28;20273;-62
2022/03/19 01:32:17;;;;;;;41.27;30.10;;;6.40;99.90;;;;;;5033020;28;20215;-61
2022/03/19 01:34:44;;;;;;;44.03;32.90;;;6.40;99.90;;;;;;5032903;28;20611;-61
2022/03/19 01:37:11;;;;;;;39.77;30.13;;;6.40;99.90;;;;;;5032719;28;20214;-62
2022/03/19 01:39:38;;;;;;;43.57;31.53;;;6.40;99.90;;;;;;5055877;22;20237;-61
2022/03/19 01:42:05;;;;;;;41.50;31.87;;;6.50;99.90;;;;;;5032555;28;20562;-61
2022/03/19 01:44:34;;;;;;;39.20;29.27;;;6.40;99.90;;;;;;5032781;28;20206;-62
2022/03/19 01:47:02;;;;;;;40.23;30.10;;;6.40;99.90;;;;;;5032495;28;20670;-62
2022/03/19 01:49:30;;;;;;;45.73;31.00;;;6.40;99.90;;;;;;5032178;28;20230;-62
2022/03/19 01:51:57;;;;;;;39.83;29.17;;;6.50;99.90;;;;;;5032518;28;20206;-62
2022/03/19 01:54:27;;;;;;;41.40;29.10;;;6.40;99.90;;;;;;5032468;28;20283;-62
2022/03/19 01:56:55;;;;;;;39.83;29.27;;;6.40;99.90;;;;;;5032706;28;20233;-62
2022/03/19 01:59:24;;;;;;;39.50;29.07;;;6.40;99.90;;;;;;5032162;28;20293;-62
2022/03/19 02:01:52;;;;;;;40.93;28.93;;;6.40;99.90;;;;;;5032389;28;20208;-62
2022/03/19 02:04:21;;;;;;;42.67;29.77;;;6.40;99.90;;;;;;5032472;28;20631;-62
2022/03/19 02:06:48;;;;;;;41.93;28.50;;;6.40;99.90;;;;;;5032248;28;20233;-62
2022/03/19 02:09:15;;;;;;;43.03;29.63;;;6.40;99.90;;;;;;5032262;28;20234;-62
2022/03/19 02:11:42;;;;;;;40.97;29.07;;;6.40;99.90;;;;;;5032324;28;20625;-62
2022/03/19 02:14:09;;;;;;;42.20;29.40;;;6.40;99.90;;;;;;5032309;28;20229;-62
2022/03/19 02:16:35;;;;;;;39.73;28.93;;;6.40;99.90;;;;;;5032295;28;20209;-62
2022/03/19 02:19:03;;;;;;;39.70;29.27;;;6.40;99.90;;;;;;5032042;28;20260;-62
2022/03/19 02:21:40;;;;;;;43.10;29.13;;;6.40;99.90;;;;;;5032191;28;20226;-61
2022/03/19 02:26:53;;;;;;;39.53;27.00;;;6.40;99.90;;;;;;5032151;28;20212;-62
2022/03/19 02:29:20;;;;;;;39.20;28.90;;;6.40;99.90;;;;;;5031762;28;20226;-62
2022/03/19 02:31:50;;;;;;;38.33;28.60;;;6.40;99.90;;;;;;5031982;28;20272;-62
2022/03/19 02:34:17;;;;;;;41.03;29.33;;;6.40;99.90;;;;;;5032275;28;20206;-62
2022/03/19 02:36:44;;;;;;;38.90;28.43;;;6.40;99.90;;;;;;5032212;28;20339;-62
2022/03/19 02:39:16;;;;;;;42.77;29.07;;;6.40;99.90;;;;;;5031699;28;20731;-62
2022/03/19 02:41:43;;;;;;;42.53;28.60;;;6.40;99.90;;;;;;5031310;28;20241;-61
2022/03/19 02:44:11;;;;;;;37.77;27.87;;;6.40;99.90;;;;;;5031889;28;20241;-62
2022/03/19 02:46:38;;;;;;;39.83;28.27;;;6.30;99.90;;;;;;5032094;28;20631;-62
2022/03/19 02:49:05;;;;;;;43.50;29.63;;;6.30;99.90;;;;;;5032142;28;20321;-62
2022/03/19 02:51:35;;;;;;;40.60;28.83;;;6.30;99.90;;;;;;5032100;28;20222;-62
2022/03/19 02:54:04;;;;;;;39.33;28.10;;;6.40;99.90;;;;;;5031780;28;20705;-62
2022/03/19 02:56:33;;;;;;;40.83;29.23;;;6.30;99.90;;;;;;5031774;28;20305;-62
2022/03/19 02:59:06;;;;;;;41.20;28.53;;;6.40;99.90;;;;;;5031556;28;20206;-61
2022/03/19 03:01:33;;;;;;;41.47;28.57;;;6.40;99.90;;;;;;5032017;28;20666;-61
2022/03/19 03:04:00;;;;;;;41.53;28.70;;;6.50;99.90;;;;;;5031932;28;20265;-62
2022/03/19 03:06:27;;;;;;;41.50;29.03;;;6.50;99.90;;;;;;5031921;28;20201;-62
2022/03/19 03:08:54;;;;;;;38.53;29.20;;;6.40;99.90;;;;;;5032044;28;20225;-62
2022/03/19 03:11:21;;;;;;;39.83;28.60;;;6.40;99.90;;;;;;5031223;28;20288;-61
2022/03/19 03:13:49;;;;;;;39.23;29.23;;;6.30;99.90;;;;;;5031798;28;20221;-62
2022/03/19 03:16:16;;;;;;;39.57;29.03;;;6.40;99.90;;;;;;5031811;28;20702;-62
2022/03/19 03:18:42;;;;;;;37.80;28.27;;;6.40;99.90;;;;;;5031879;28;20202;-62
2022/03/19 03:21:09;;;;;;;39.23;27.93;;;6.30;99.90;;;;;;5031534;28;20226;-62
2022/03/19 03:23:36;;;;;;;42.50;30.30;;;6.30;99.90;;;;;;5031973;28;20229;-62
2022/03/19 03:26:02;;;;;;;37.40;28.73;;;6.30;99.90;;;;;;5031641;28;20203;-62
2022/03/19 03:28:29;;;;;;;40.13;30.10;;;6.30;99.90;;;;;;5032042;28;20230;-62
2022/03/19 03:30:57;;;;;;;41.87;29.63;;;6.20;99.90;;;;;;5031797;28;20714;-62
2022/03/19 03:33:24;;;;;;;39.50;28.93;;;6.30;99.90;;;;;;5031627;28;20237;-62
2022/03/19 03:35:51;;;;;;;40.53;28.83;;;6.20;99.90;;;;;;5031518;28;20674;-62
2022/03/19 03:38:17;;;;;;;40.77;29.17;;;6.20;99.90;;;;;;5031344;28;20202;-62
2022/03/19 03:40:44;;;;;;;41.87;29.07;;;6.20;99.90;;;;;;5031128;28;20308;-62
2022/03/19 03:43:11;;;;;;;37.23;28.57;;;6.30;99.90;;;;;;5031605;28;20237;-62
2022/03/19 03:45:38;;;;;;;43.43;29.70;;;6.30;99.90;;;;;;5031463;28;20233;-62
2022/03/19 03:48:06;;;;;;;39.03;28.47;;;6.30;99.90;;;;;;5031385;28;20210;-62
2022/03/19 03:50:33;;;;;;;40.33;28.90;;;6.20;99.90;;;;;;5030985;28;20234;-62
2022/03/19 03:52:59;;;;;;;39.97;29.07;;;6.20;99.90;;;;;;5031187;28;20237;-62
2022/03/19 03:55:26;;;;;;;37.80;29.00;;;6.30;99.90;;;;;;5034076;28;20580;-62
2022/03/19 03:57:53;;;;;;;40.27;29.67;;;6.30;99.90;;;;;;5034998;28;20207;-62
2022/03/19 04:00:20;;;;;;;37.70;27.87;;;6.20;99.90;;;;;;5034646;28;20234;-62
2022/03/19 04:02:46;;;;;;;40.33;29.43;;;6.20;99.90;;;;;;5034845;28;20210;-62
2022/03/19 04:05:15;;;;;;;39.97;29.37;;;6.30;99.90;;;;;;5034783;28;20206;-62
2022/03/19 04:07:41;;;;;;;38.10;28.67;;;6.20;99.90;;;;;;5034461;28;20268;-61
2022/03/19 04:10:09;;;;;;;41.33;29.00;;;6.10;99.90;;;;;;5034388;28;20242;-62
2022/03/19 04:12:36;;;;;;;39.67;29.03;;;6.20;99.90;;;;;;5034436;28;20720;-62
2022/03/19 04:15:03;;;;;;;39.67;29.17;;;6.20;99.90;;;;;;5034510;28;20210;-62
2022/03/19 04:17:30;;;;;;;39.17;28.47;;;6.20;99.90;;;;;;5034347;28;20206;-62
2022/03/19 04:19:56;;;;;;;43.37;29.37;;;6.20;99.90;;;;;;5033921;28;20241;-62
2022/03/19 04:22:25;;;;;;;45.00;29.00;;;6.20;99.90;;;;;;5034413;28;20202;-62
2022/03/19 04:24:51;;;;;;;39.23;29.10;;;6.20;99.90;;;;;;5034458;28;20566;-62
2022/03/19 04:27:18;;;;;;;39.20;28.57;;;6.20;99.90;;;;;;5034296;28;20631;-62
2022/03/19 04:29:45;;;;;;;39.73;26.93;;;6.20;99.90;;;;;;5033758;28;20782;-60
2022/03/19 04:32:11;;;;;;;39.30;28.73;;;6.20;99.90;;;;;;5034166;28;20582;-61
2022/03/19 04:34:38;;;;;;;39.47;28.77;;;6.20;99.90;;;;;;5033848;28;20627;-61
2022/03/19 04:37:05;;;;;;;40.17;28.47;;;6.10;99.90;;;;;;5034084;28;20824;-61
2022/03/19 04:39:33;;;;;;;41.20;28.93;;;6.10;99.90;;;;;;5033623;28;20202;-61
2022/03/19 04:41:59;;;;;;;40.53;28.47;;;6.10;99.90;;;;;;5034084;28;20206;-61
2022/03/19 04:44:26;;;;;;;39.57;28.23;;;6.10;99.90;;;;;;5033844;28;20210;-61
2022/03/19 04:46:53;;;;;;;41.10;28.90;;;6.00;99.90;;;;;;5033850;28;20206;-62
2022/03/19 04:49:19;;;;;;;41.80;28.53;;;6.00;99.90;;;;;;5033391;28;20222;-61
2022/03/19 04:51:46;;;;;;;39.03;28.50;;;6.00;99.90;;;;;;5033770;28;20230;-62
2022/03/19 04:54:13;;;;;;;36.93;27.33;;;6.00;99.90;;;;;;5033736;28;20206;-62
2022/03/19 04:56:41;;;;;;;38.17;27.53;;;6.00;99.90;;;;;;5033608;28;20213;-61
2022/03/19 04:59:11;;;;;;;39.67;29.23;;;6.00;99.90;;;;;;5033424;28;20256;-60
2022/03/19 05:01:39;;;;;;;37.57;28.30;;;5.90;99.90;;;;;;5033339;28;20579;-64
2022/03/19 05:04:06;;;;;;;40.67;27.97;;;5.80;99.90;;;;;;5033729;28;20256;-62
2022/03/19 05:06:32;;;;;;;39.13;28.03;;;5.80;99.90;;;;;;5033544;28;20237;-62
2022/03/19 05:11:45;;;;;;;37.93;28.60;;;5.70;99.90;;;;;;5033507;28;20225;-61
2022/03/19 05:14:11;;;;;;;39.70;29.83;;;5.60;99.90;;;;;;5033503;28;20209;-61
2022/03/19 05:16:38;;;;;;;40.47;28.83;;;5.60;99.90;;;;;;5033613;28;20352;-61
2022/03/19 05:19:06;;;;;;;42.50;29.57;;;5.70;99.90;;;;;;5033782;28;20209;-61
2022/03/19 05:21:33;;;;;;;41.23;29.63;;;5.60;99.90;;;;;;5032945;28;20280;-62
2022/03/19 05:24:00;;;;;;;42.20;30.53;;;5.60;99.90;;;;;;5033262;28;20225;-62
2022/03/19 05:26:27;;;;;;;40.07;30.03;;;5.60;99.90;;;;;;5033044;28;20563;-62
2022/03/19 05:28:56;;;;;;;42.80;29.97;;;5.60;99.90;;;;;;5033148;28;20226;-62
2022/03/19 05:31:22;;;;;;;41.43;30.50;;;5.60;99.90;;;;;;5033342;28;20647;-61
2022/03/19 05:36:33;;;;;;;43.77;29.53;;;5.60;99.90;;;;;;5033067;28;20201;-59
2022/03/19 05:39:00;;;;;;;42.73;30.07;;;5.40;99.90;;;;;;5032980;28;20336;-59
2022/03/19 05:41:27;;;;;;;41.23;29.63;;;5.30;99.90;;;;;;5032460;28;20241;-60
2022/03/19 05:43:55;;;;;;;41.93;28.90;;;5.40;99.90;;;;;;5033015;28;20202;-59
2022/03/19 05:46:22;;;;;;;39.63;29.60;;;5.50;99.90;;;;;;5032908;28;20256;-59
2022/03/19 05:48:48;;;;;;;36.80;28.00;;;5.60;99.90;;;;;;5032940;28;20287;-60
2022/03/19 05:51:15;;;;;;;43.03;29.77;;;5.70;99.90;;;;;;5032373;28;20226;-59
2022/03/19 05:53:43;;;;;;;40.90;28.57;;;5.70;99.90;;;;;;5032573;28;20233;-59
2022/03/19 05:56:10;;;;;;;40.00;30.23;;;5.90;99.90;;;;;;5032909;28;20206;-59
2022/03/19 05:58:37;;;;;;;52.07;32.83;;;5.90;99.90;;;;;;5032502;28;20605;-60
2022/03/19 06:01:05;;;;;;;41.07;29.50;;;6.00;99.90;;;;;;5032152;28;20578;-60
2022/03/19 06:03:31;;;;;;;42.47;29.83;;;6.10;99.90;;;;;;5032329;28;20256;-61
2022/03/19 06:05:58;;;;;;;42.77;29.10;;;6.20;99.90;;;;;;5032302;28;20225;-60
2022/03/19 06:08:25;;;;;;;40.43;29.00;;;6.30;99.90;;;;;;5032149;28;20708;-60
2022/03/19 06:10:51;;;;;;;41.70;29.53;;;6.50;99.90;;;;;;5032199;28;20288;-59
2022/03/19 06:13:18;;;;;;;41.17;29.60;;;6.60;99.90;;;;;;5032424;28;20210;-59
2022/03/19 06:15:45;;;;;;;41.37;28.40;;;6.60;99.90;;;;;;5032305;28;20210;-60
2022/03/19 06:18:13;;;;;;;38.87;28.80;;;6.70;99.90;;;;;;5031702;28;20206;-57
2022/03/19 06:20:40;;;;;;;44.57;29.17;;;6.80;99.90;;;;;;5031841;28;20229;-59
2022/03/19 06:23:06;;;;;;;41.13;29.77;;;7.00;99.90;;;;;;5032102;28;20206;-59
2022/03/19 06:25:34;;;;;;;40.63;29.90;;;7.10;99.90;;;;;;5032093;28;20629;-59
2022/03/19 06:28:01;;;;;;;41.07;28.23;;;7.20;99.90;;;;;;5031971;28;20578;-59
2022/03/19 06:30:29;;;;;;;42.63;29.63;;;7.30;99.90;;;;;;5031804;28;20234;-59
2022/03/19 06:32:58;;;;;;;38.70;28.03;;;7.50;99.90;;;;;;5032158;28;20313;-58
2022/03/19 06:38:07;;;;;;;32.63;25.93;;;8.80;99.90;;;;;;4998789;28;20967;-59
2022/03/19 06:40:36;;;;;;;35.77;26.63;;;9.90;99.90;;;;;;5031690;28;20237;-59
2022/03/19 06:43:03;;;;;;;35.30;27.27;;;10.80;99.90;;;;;;5032127;28;20301;-59
2022/03/19 06:45:29;;;;;;;35.07;26.20;;;11.70;99.90;;;;;;5031370;28;20209;-60
2022/03/19 06:47:56;;;;;;;35.00;25.67;;;12.50;99.90;;;;;;5031746;28;20279;-60
2022/03/19 06:50:23;;;;;;;33.20;25.50;;;13.20;99.20;;;;;;5032026;28;20229;-59
2022/03/19 06:52:51;;;;;;;32.70;25.60;;;14.00;98.80;;;;;;5032104;28;20206;-59
2022/03/19 06:55:18;;;;;;;36.20;27.37;;;14.70;96.00;;;;;;5031931;28;20217;-60
2022/03/19 06:57:44;;;;;;;32.40;25.37;;;15.20;95.00;;;;;;5031950;28;20206;-59
2022/03/19 07:00:12;;;;;;;28.97;23.80;;;15.80;93.90;;;;;;5031548;28;20233;-60
2022/03/19 07:02:46;;;;;;;29.40;22.80;;;16.10;91.80;;;;;;5031671;28;20677;-59
2022/03/19 07:05:13;;;;;;;31.77;22.97;;;16.50;90.40;;;;;;5032111;28;20194;-59
2022/03/19 07:07:40;;;;;;;31.60;24.17;;;17.00;88.70;;;;;;5031836;28;20206;-59
2022/03/19 07:10:09;;;;;;;29.90;23.35;;;17.10;87.90;;;;;;5031515;28;20276;-60
2022/03/19 07:12:42;;;;;;;28.90;22.80;;;17.30;86.50;;;;;;5031871;28;20208;-60
2022/03/19 07:15:11;;;;;;;27.75;21.95;;;17.50;85.60;;;;;;5031729;28;20206;-60
2022/03/19 07:17:38;;;;;;;27.80;21.75;;;17.90;83.00;;;;;;5031900;28;20202;-60
2022/03/19 07:20:05;;;;;;;25.65;22.33;;;18.30;80.40;;;;;;5031498;28;20222;-60
2022/03/19 07:22:46;;;;;;;28.70;22.25;;;18.40;78.30;;;;;;5031841;28;20206;-59
2022/03/19 07:25:15;;;;;;;25.75;20.90;;;18.10;77.30;;;;;;5031849;28;20261;-59
2022/03/19 07:27:41;;;;;;;29.30;22.42;;;17.70;77.10;;;;;;5031747;28;20210;-59
2022/03/19 07:30:09;;;;;;;25.77;20.52;;;16.90;76.80;;;;;;5035347;28;20242;-59
2022/03/19 07:32:36;;;;;;;25.83;21.40;;;16.40;78.40;;;;;;5035689;28;20209;-60
2022/03/19 07:35:02;;;;;;;23.17;19.87;;;16.00;78.80;;;;;;5035720;28;20210;-59
2022/03/19 07:37:29;;;;;;;29.57;21.47;;;16.10;78.40;;;;;;5036001;28;20265;-60
2022/03/19 07:39:56;;;;;;;28.53;21.27;;;16.40;78.60;;;;;;5036005;28;20234;-58
2022/03/19 07:42:24;;;;;;;24.60;20.40;;;16.70;77.40;;;;;;5035313;28;20213;-57
2022/03/19 07:44:50;;;;;;;27.73;20.17;;;16.80;76.40;;;;;;5036145;28;20237;-58
2022/03/19 07:47:17;;;;;;;27.37;20.40;;;16.50;75.70;;;;;;5035144;28;20202;-58
2022/03/19 07:49:44;;;;;;;25.90;21.20;;;16.50;75.90;;;;;;5034506;28;20234;-58
2022/03/19 07:52:12;;;;;;;28.20;20.93;;;16.70;76.20;;;;;;5034914;28;20238;-57
2022/03/19 07:54:39;;;;;;;25.63;20.17;;;16.60;75.70;;;;;;5034780;28;20256;-57
2022/03/19 07:57:07;;;;;;;27.77;21.43;;;16.20;76.70;;;;;;5035324;28;20210;-57
2022/03/19 07:59:35;;;;;;;30.13;21.13;;;15.50;78.30;;;;;;5034396;28;20573;-57
2022/03/19 08:02:02;;;;;;;27.47;21.30;;;14.90;80.40;;;;;;5034544;28;20554;-57
2022/03/19 08:04:29;;;;;;;28.07;20.97;;;14.30;81.40;;;;;;5034531;28;20340;-57
2022/03/19 08:06:56;;;;;;;26.67;21.33;;;13.60;82.80;;;;;;5034698;28;20297;-57
2022/03/19 08:09:23;;;;;;;27.63;20.07;;;12.80;83.90;;;;;;5034379;28;20682;-58
2022/03/19 08:11:50;;;;;;;26.00;20.60;;;12.30;85.70;;;;;;5034465;28;20206;-58
2022/03/19 08:14:19;;;;;;;28.33;21.00;;;11.80;86.20;;;;;;5034385;28;20214;-57
2022/03/19 08:16:47;;;;;;;28.70;19.57;;;11.50;87.60;;;;;;5034213;28;20297;-57
2022/03/19 08:19:15;;;;;;;28.03;20.70;;;11.30;88.50;;;;;;5034265;28;20214;-57
2022/03/19 08:21:44;;;;;;;26.60;20.03;;;11.00;89.70;;;;;;5034093;28;20226;-57
2022/03/19 08:24:11;;;;;;;28.37;21.23;;;10.70;90.40;;;;;;5034306;28;20234;-57
2022/03/19 08:26:39;;;;;;;29.33;20.60;;;10.50;91.00;;;;;;5034802;28;20284;-57
2022/03/19 08:29:06;;;;;;;26.93;19.43;;;10.30;90.90;;;;;;5035258;28;20300;-58
2022/03/19 08:31:33;;;;;;;28.30;20.07;;;10.30;91.00;;;;;;5034170;28;20233;-59
2022/03/19 08:34:01;;;;;;;25.77;19.77;;;10.20;91.40;;;;;;5034174;28;20217;-57
2022/03/19 08:36:28;;;;;;;26.17;19.33;;;10.30;91.70;;;;;;5033962;28;20293;-57
2022/03/19 08:41:39;;;;;;;26.60;19.77;;;10.40;91.60;;;;;;5033130;28;20288;-57
2022/03/19 08:44:06;;;;;;;25.77;19.57;;;10.20;91.40;;;;;;5034404;28;20628;-57
2022/03/19 08:46:33;;;;;;;26.90;18.63;;;10.20;92.10;;;;;;5034122;28;20213;-58
2022/03/19 08:49:01;;;;;;;27.00;20.10;;;10.30;91.50;;;;;;5033719;28;20631;-57
2022/03/19 08:51:42;;;;;;;27.07;20.27;;;10.30;91.80;;;;;;5033624;28;20698;-57
2022/03/19 08:54:11;;;;;;;26.57;19.00;;;10.30;92.20;;;;;;5033776;28;20217;-58
2022/03/19 08:56:39;;;;;;;23.47;17.87;;;10.40;91.90;;;;;;5033818;28;20210;-57
2022/03/19 08:59:06;;;;;;;25.63;19.93;;;10.50;91.80;;;;;;5033673;28;20211;-57
2022/03/19 09:01:33;;;;;;;26.10;18.80;;;10.50;91.70;;;;;;5033124;28;20229;-57
2022/03/19 09:04:02;;;;;;;25.03;19.33;;;10.60;91.00;;;;;;5033768;28;20210;-57
2022/03/19 09:06:28;;;;;;;27.93;18.97;;;10.60;91.00;;;;;;5033713;28;20216;-57
2022/03/19 09:08:55;;;;;;;26.80;19.97;;;10.60;91.00;;;;;;5033683;28;20206;-56
2022/03/19 09:11:23;;;;;;;26.83;19.70;;;10.70;90.60;;;;;;5033215;28;20257;-58
2022/03/19 09:13:51;;;;;;;25.67;19.30;;;10.60;91.30;;;;;;5033518;28;20676;-57
2022/03/19 09:16:19;;;;;;;26.30;20.40;;;10.50;91.70;;;;;;5033718;28;20210;-58
2022/03/19 09:18:46;;;;;;;28.47;19.87;;;10.60;92.30;;;;;;5033443;28;20259;-57
2022/03/19 09:21:14;;;;;;;26.13;20.20;;;10.70;92.40;;;;;;5033125;28;20226;-57
2022/03/19 09:23:41;;;;;;;26.53;20.27;;;10.80;92.50;;;;;;5033168;28;20256;-57
2022/03/19 09:26:07;;;;;;;25.57;18.97;;;10.90;91.80;;;;;;5033235;28;20206;-57
2022/03/19 09:28:34;;;;;;;30.50;21.17;;;10.90;92.10;;;;;;5033188;28;20241;-59
2022/03/19 09:31:01;;;;;;;28.17;22.77;;;10.90;91.90;;;;;;5033380;28;20284;-58
2022/03/19 09:33:28;;;;;;;29.33;21.37;;;10.90;92.10;;;;;;5033430;28;20214;-58
2022/03/19 09:35:57;;;;;;;28.33;21.63;;;10.80;92.20;;;;;;5033102;28;20210;-56
2022/03/19 09:38:25;;;;;;;32.30;21.93;;;10.80;92.40;;;;;;5033265;28;20207;-57
2022/03/19 09:40:52;;;;;;;28.33;22.30;;;10.90;92.40;;;;;;5032473;28;20824;-56
2022/03/19 09:43:19;;;;;;;28.17;21.07;;;10.90;92.60;;;;;;5032866;28;20265;-57
2022/03/19 09:45:45;;;;;;;30.80;22.37;;;11.00;92.50;;;;;;5033046;28;20214;-57
2022/03/19 09:48:12;;;;;;;30.93;21.50;;;11.20;92.10;;;;;;5033277;28;20293;-57
2022/03/19 09:50:39;;;;;;;32.57;21.67;;;11.30;91.70;;;;;;5033657;28;20234;-57
2022/03/19 09:53:07;;;;;;;30.70;23.07;;;11.60;92.00;;;;;;5033117;28;20206;-57
2022/03/19 09:55:37;;;;;;;29.10;21.93;;;11.80;91.40;;;;;;5032978;28;20209;-57
2022/03/19 09:58:04;;;;;;;31.20;22.93;;;12.00;91.60;;;;;;5032882;28;20206;-57
2022/03/19 10:00:31;;;;;;;31.03;22.80;;;12.00;91.50;;;;;;5032375;28;20603;-57
2022/03/19 10:02:59;;;;;;;32.87;24.27;;;12.00;91.90;;;;;;5032403;28;20210;-57
2022/03/19 10:11:01;;;;;;;34.87;23.63;;;12.00;92.00;;;;;;5032007;28;20287;-57
2022/03/19 10:13:28;;;;;;;35.07;21.23;;;11.90;92.30;;;;;;5032463;28;20210;-58
2022/03/19 10:15:55;;;;;;;28.93;23.07;;;11.80;92.30;;;;;;5032680;28;20207;-57
2022/03/19 10:18:27;;;;;;;33.27;24.00;;;11.70;92.30;;;;;;5032140;28;20217;-58
2022/03/19 10:20:54;;;;;;;30.53;23.23;;;11.80;92.30;;;;;;5032082;28;20317;-56
2022/03/19 10:23:34;;;;;;;28.87;22.37;;;12.00;91.80;;;;;;5032254;28;20206;-56
2022/03/19 10:26:02;;;;;;;29.70;22.50;;;12.20;92.00;;;;;;5032241;28;20233;-56
2022/03/19 10:28:30;;;;;;;29.53;23.07;;;12.50;91.40;;;;;;5032053;28;20292;-57
2022/03/19 10:30:57;;;;;;;27.63;19.70;;;13.00;91.60;;;;;;5032132;28;20702;-58
2022/03/19 10:33:27;;;;;;;29.40;20.10;;;13.40;89.90;;;;;;5032849;28;20605;-58
2022/03/19 10:36:06;;;;;;;24.77;19.43;;;13.60;88.00;;;;;;5032239;28;20293;-57
2022/03/19 10:38:41;;;;;;;21.00;16.07;;;13.70;87.20;;;;;;5032118;28;20238;-57
2022/03/19 10:41:09;;;;;;;20.03;15.57;;;13.70;84.70;;;;;;5031485;28;20279;-56
2022/03/19 10:43:36;;;;;;;21.97;14.77;;;13.60;83.90;;;;;;5032019;28;20210;-58
2022/03/19 10:46:04;;;;;;;17.03;12.20;;;13.30;82.20;;;;;;5031997;28;20213;-56
2022/03/19 10:48:32;;;;;;;15.27;10.73;;;13.10;81.30;;;;;;5031946;28;20681;-56
2022/03/19 10:50:59;;;;;;;16.20;12.30;;;12.80;79.10;;;;;;5031921;28;20256;-57
2022/03/19 10:53:27;;;;;;;17.63;11.67;;;12.50;80.10;;;;;;5032311;28;20212;-56
2022/03/19 10:55:54;;;;;;;16.90;12.97;;;12.40;79.00;;;;;;5031784;28;20297;-57
2022/03/19 10:58:23;;;;;;;19.67;12.90;;;12.30;81.50;;;;;;5032354;28;20293;-58
2022/03/19 11:00:51;;;;;;;18.27;12.27;;;12.40;82.80;;;;;;5031852;28;20647;-56
2022/03/19 11:03:20;;;;;;;14.83;11.70;;;12.50;83.10;;;;;;5033231;28;20631;-56
2022/03/19 11:05:50;;;;;;;17.13;11.83;;;12.60;83.10;;;;;;5035875;28;20260;-58
2022/03/19 11:08:19;;;;;;;16.67;11.27;;;12.60;82.30;;;;;;5035977;28;20233;-57
2022/03/19 11:10:48;;;;;;;16.67;11.03;;;12.50;82.30;;;;;;5035830;28;20288;-59
2022/03/19 11:13:20;;;;;;;15.00;10.50;;;12.50;82.50;;;;;;5036043;28;20216;-57
2022/03/19 11:15:54;;;;;;;13.93;10.27;;;12.40;82.40;;;;;;5035766;28;20214;-57
2022/03/19 11:18:21;;;;;;;16.83;11.00;;;12.40;81.80;;;;;;5035750;28;20292;-57
2022/03/19 11:20:49;;;;;;;20.23;10.67;;;12.30;83.40;;;;;;5035170;28;20648;-56
2022/03/19 11:23:19;;;;;;;16.60;10.93;;;12.40;82.80;;;;;;5036311;28;20214;-56
2022/03/19 11:25:51;;;;;;;15.53;11.23;;;12.50;83.30;;;;;;5035649;28;20213;-56
2022/03/19 11:28:20;;;;;;;16.20;11.50;;;12.60;84.40;;;;;;5035650;28;20584;-57
2022/03/19 11:31:03;;;;;;;14.23;11.10;;;12.90;82.90;;;;;;5035208;28;20276;-57
2022/03/19 11:33:31;;;;;;;15.70;10.73;;;13.20;83.00;;;;;;5035620;28;20210;-57
2022/03/19 11:36:07;;;;;;;14.50;10.73;;;13.20;82.70;;;;;;5035191;28;20206;-57
2022/03/19 11:38:41;;;;;;;15.77;10.27;;;13.20;82.90;;;;;;5035615;28;20238;-56
2022/03/19 11:41:19;;;;;;;13.80;10.67;;;13.20;81.90;;;;;;5034760;28;20653;-56
2022/03/19 11:43:46;;;;;;;17.10;10.50;;;13.10;81.20;;;;;;5035024;28;20334;-57
2022/03/19 11:46:14;;;;;;;15.87;10.20;;;13.10;82.60;;;;;;5035125;28;20261;-56
2022/03/19 11:48:50;;;;;;;13.27;9.90;;;13.00;82.60;;;;;;5035084;28;20218;-57
2022/03/19 11:51:18;;;;;;;12.80;8.47;;;12.90;82.90;;;;;;5034457;28;20267;-57
2022/03/19 11:53:52;;;;;;;11.27;7.93;;;12.90;80.20;;;;;;5034961;28;20206;-57
2022/03/19 11:56:19;;;;;;;12.70;9.07;;;13.00;76.20;;;;;;5034692;28;20210;-57
2022/03/19 11:58:47;;;;;;;10.70;8.80;;;13.20;74.70;;;;;;5034958;28;20718;-57
2022/03/19 12:01:16;;;;;;;13.43;9.00;;;13.40;76.40;;;;;;5034638;28;20261;-57
2022/03/19 12:04:11;;;;;;;12.83;9.13;;;13.60;77.10;;;;;;5035049;28;20210;-57
2022/03/19 12:06:39;;;;;;;12.30;9.00;;;13.80;76.80;;;;;;5034645;28;20250;-57
2022/03/19 12:09:06;;;;;;;11.77;9.40;;;13.90;77.70;;;;;;5034751;28;20210;-58
2022/03/19 12:11:35;;;;;;;14.00;9.30;;;14.10;77.50;;;;;;5034357;28;20233;-57
2022/03/19 12:14:09;;;;;;;13.73;7.87;;;14.40;77.90;;;;;;5034564;28;20212;-57
2022/03/19 12:16:41;;;;;;;11.23;8.03;;;14.60;75.30;;;;;;5033862;28;20301;-57
2022/03/19 12:19:09;;;;;;;11.63;8.07;;;14.40;73.30;;;;;;5034463;28;20872;-57
2022/03/19 12:21:37;;;;;;;12.50;7.90;;;13.80;73.50;;;;;;5034176;28;20226;-57
2022/03/19 12:24:33;;;;;;;11.97;8.27;;;13.30;74.90;;;;;;5034586;28;20213;-56
2022/03/19 12:27:00;;;;;;;11.50;8.10;;;13.10;75.00;;;;;;5034784;28;20206;-57
2022/03/19 12:29:31;;;;;;;12.43;8.40;;;13.20;73.90;;;;;;5034442;28;20205;-57
2022/03/19 12:31:59;;;;;;;13.27;8.10;;;13.50;74.00;;;;;;5034056;28;20272;-57
2022/03/19 12:34:30;;;;;;;10.57;7.77;;;13.70;72.20;;;;;;5034185;28;20736;-57
2022/03/19 12:36:59;;;;;;;11.30;7.10;;;14.00;71.40;;;;;;5034262;28;20213;-58
2022/03/19 12:39:27;;;;;;;10.00;7.27;;;14.20;72.30;;;;;;5034293;28;20233;-57
2022/03/19 12:41:54;;;;;;;10.43;7.23;;;13.90;72.50;;;;;;5034090;28;20206;-58
2022/03/19 12:44:24;;;;;;;11.67;7.03;;;13.50;73.90;;;;;;5034240;28;20213;-57
2022/03/19 12:46:57;;;;;;;10.43;7.00;;;13.20;73.10;;;;;;5034494;28;20260;-57
2022/03/19 12:49:26;;;;;;;11.10;6.90;;;13.10;74.20;;;;;;5034151;28;20293;-58
2022/03/19 12:51:53;;;;;;;10.20;6.73;;;13.20;74.70;;;;;;5034003;28;20283;-57
2022/03/19 12:54:21;;;;;;;10.33;7.33;;;13.30;72.60;;;;;;5034075;28;20206;-57
2022/03/19 12:56:49;;;;;;;9.37;6.30;;;13.30;72.20;;;;;;5033960;28;20206;-57